sensor_id;sensor_type;location;lat;lon;timestamp;pressure;altitude;pressure_sealevel;temperature;humidity
63665;BME280;49820;33.966;73.390;2022-12-18T00:00:12;78859.19;;;5.74;37.99
63665;BME280;49820;33.966;73.390;2022-12-18T00:02:43;78850.56;;;5.71;38.17
63665;BME280;49820;33.966;73.390;2022-12-18T00:05:12;78861.16;;;5.73;37.95
63665;BME280;49820;33.966;73.390;2022-12-18T00:07:41;78853.22;;;5.73;37.82
63665;BME280;49820;33.966;73.390;2022-12-18T00:10:10;78855.22;;;5.71;37.64
63665;BME280;49820;33.966;73.390;2022-12-18T00:12:44;78863.22;;;5.67;37.90
63665;BME280;49820;33.966;73.390;2022-12-18T00:15:13;78846.09;;;5.50;38.10
63665;BME280;49820;33.966;73.390;2022-12-18T00:17:42;78877.75;;;5.72;37.69
63665;BME280;49820;33.966;73.390;2022-12-18T00:20:11;78873.78;;;5.69;37.74
63665;BME280;49820;33.966;73.390;2022-12-18T00:22:41;78854.59;;;5.66;37.28
63665;BME280;49820;33.966;73.390;2022-12-18T00:25:10;78841.41;;;5.56;37.26
63665;BME280;49820;33.966;73.390;2022-12-18T00:27:39;78849.38;;;5.54;37.47
63665;BME280;49820;33.966;73.390;2022-12-18T00:33:34;78868.47;;;5.73;36.54
63665;BME280;49820;33.966;73.390;2022-12-18T00:36:10;78879.63;;;5.92;36.01
63665;BME280;49820;33.966;73.390;2022-12-18T00:38:40;78868.41;;;5.79;36.63
63665;BME280;49820;33.966;73.390;2022-12-18T00:41:11;78854.66;;;5.58;36.88
63665;BME280;49820;33.966;73.390;2022-12-18T00:43:40;78863.94;;;5.55;37.27
63665;BME280;49820;33.966;73.390;2022-12-18T00:46:09;78863.28;;;5.55;37.24
63665;BME280;49820;33.966;73.390;2022-12-18T00:48:38;78871.22;;;5.53;37.61
63665;BME280;49820;33.966;73.390;2022-12-18T00:51:07;78865.97;;;5.49;37.49
63665;BME280;49820;33.966;73.390;2022-12-18T00:53:37;78864.66;;;5.44;36.96
63665;BME280;49820;33.966;73.390;2022-12-18T00:56:06;78865.97;;;5.51;36.94
63665;BME280;49820;33.966;73.390;2022-12-18T00:58:35;78846.25;;;5.25;37.42
63665;BME280;49820;33.966;73.390;2022-12-18T01:01:05;78883.13;;;5.58;37.32
63665;BME280;49820;33.966;73.390;2022-12-18T01:03:34;78836.97;;;5.24;36.66
63665;BME280;49820;33.966;73.390;2022-12-18T01:06:08;78858.16;;;5.22;37.60
63665;BME280;49820;33.966;73.390;2022-12-18T01:08:38;78858.28;;;5.02;38.68
63665;BME280;49820;33.966;73.390;2022-12-18T01:11:11;78874.81;;;5.05;38.63
63665;BME280;49820;33.966;73.390;2022-12-18T01:13:42;78868.28;;;4.81;38.78
63665;BME280;49820;33.966;73.390;2022-12-18T01:16:15;78879.56;;;4.74;39.59
63665;BME280;49820;33.966;73.390;2022-12-18T01:18:44;78882.94;;;4.58;40.18
63665;BME280;49820;33.966;73.390;2022-12-18T01:21:15;78892.19;;;4.49;41.54
63665;BME280;49820;33.966;73.390;2022-12-18T01:23:44;78885.00;;;4.29;42.14
63665;BME280;49820;33.966;73.390;2022-12-18T01:26:15;78876.44;;;4.00;42.47
63665;BME280;49820;33.966;73.390;2022-12-18T01:28:44;78869.84;;;3.87;42.24
63665;BME280;49820;33.966;73.390;2022-12-18T01:31:19;78887.66;;;3.91;43.81
63665;BME280;49820;33.966;73.390;2022-12-18T01:33:50;78892.31;;;3.72;44.06
63665;BME280;49820;33.966;73.390;2022-12-18T01:36:25;78891.66;;;3.61;44.50
63665;BME280;49820;33.966;73.390;2022-12-18T01:38:56;78889.03;;;3.63;44.45
63665;BME280;49820;33.966;73.390;2022-12-18T01:41:28;78876.44;;;3.33;45.08
63665;BME280;49820;33.966;73.390;2022-12-18T01:47:41;78896.91;;;3.98;43.60
63665;BME280;49820;33.966;73.390;2022-12-18T01:53:22;78882.41;;;3.58;45.46
63665;BME280;49820;33.966;73.390;2022-12-18T01:55:51;78920.69;;;3.65;45.87
63665;BME280;49820;33.966;73.390;2022-12-18T01:58:27;78905.50;;;3.58;45.81
63665;BME280;49820;33.966;73.390;2022-12-18T02:00:58;78912.78;;;3.57;45.37
63665;BME280;49820;33.966;73.390;2022-12-18T02:03:27;78914.75;;;3.59;44.89
63665;BME280;49820;33.966;73.390;2022-12-18T02:06:07;78919.41;;;3.72;45.24
63665;BME280;49820;33.966;73.390;2022-12-18T02:16:27;78933.75;;;4.95;42.89
63665;BME280;49820;33.966;73.390;2022-12-18T02:25:17;78937.50;;;5.47;41.52
63665;BME280;49820;33.966;73.390;2022-12-18T02:27:51;78936.09;;;5.62;40.82
63665;BME280;49820;33.966;73.390;2022-12-18T02:30:21;78914.66;;;6.04;39.73
63665;BME280;49820;33.966;73.390;2022-12-18T02:32:52;78922.69;;;6.78;37.13
63665;BME280;49820;33.966;73.390;2022-12-18T02:35:27;78942.00;;;7.40;37.60
63665;BME280;49820;33.966;73.390;2022-12-18T02:37:59;78920.44;;;7.66;35.92
63665;BME280;49820;33.966;73.390;2022-12-18T02:40:32;78875.31;;;7.60;35.66
63665;BME280;49820;33.966;73.390;2022-12-18T02:43:12;78954.66;;;8.46;34.90
63665;BME280;49820;33.966;73.390;2022-12-18T02:45:52;78962.19;;;8.78;33.32
63665;BME280;49820;33.966;73.390;2022-12-18T02:48:30;78943.78;;;9.07;30.88
63665;BME280;49820;33.966;73.390;2022-12-18T02:51:11;78947.78;;;9.47;30.52
63665;BME280;49820;33.966;73.390;2022-12-18T02:54:32;78957.09;;;9.85;30.42
63665;BME280;49820;33.966;73.390;2022-12-18T02:56:51;78959.16;;;9.82;31.05
63665;BME280;49820;33.966;73.390;2022-12-18T02:59:34;78958.50;;;9.43;31.93
63665;BME280;49820;33.966;73.390;2022-12-18T03:02:29;78967.53;;;9.21;33.49
63665;BME280;49820;33.966;73.390;2022-12-18T03:08:03;78958.97;;;8.71;35.44
63665;BME280;49820;33.966;73.390;2022-12-18T03:10:40;78965.16;;;8.58;37.29
63665;BME280;49820;33.966;73.390;2022-12-18T03:13:29;78941.44;;;8.41;37.36
63665;BME280;49820;33.966;73.390;2022-12-18T03:16:03;78972.25;;;8.75;36.89
63665;BME280;49820;33.966;73.390;2022-12-18T03:18:46;78969.34;;;8.90;38.41
63665;BME280;49820;33.966;73.390;2022-12-18T03:21:21;78962.09;;;8.84;37.33
63665;BME280;49820;33.966;73.390;2022-12-18T03:23:52;78952.06;;;8.89;38.96
63665;BME280;49820;33.966;73.390;2022-12-18T03:26:26;78983.94;;;8.95;37.84
63665;BME280;49820;33.966;73.390;2022-12-18T03:29:04;78979.16;;;9.01;38.33
63665;BME280;49820;33.966;73.390;2022-12-18T03:31:39;78976.59;;;8.95;36.97
63665;BME280;49820;33.966;73.390;2022-12-18T03:34:14;78972.03;;;8.88;37.53
63665;BME280;49820;33.966;73.390;2022-12-18T03:36:46;78967.13;;;9.04;38.43
63665;BME280;49820;33.966;73.390;2022-12-18T03:39:15;78971.34;;;8.91;38.19
63665;BME280;49820;33.966;73.390;2022-12-18T03:42:04;78967.72;;;9.09;38.82
63665;BME280;49820;33.966;73.390;2022-12-18T03:47:14;78985.38;;;9.31;38.11
63665;BME280;49820;33.966;73.390;2022-12-18T03:55:31;78991.75;;;9.48;37.95
63665;BME280;49820;33.966;73.390;2022-12-18T03:58:06;78987.59;;;9.57;38.47
63665;BME280;49820;33.966;73.390;2022-12-18T04:00:48;78975.91;;;9.40;38.34
63665;BME280;49820;33.966;73.390;2022-12-18T04:03:20;78969.81;;;9.45;39.58
63665;BME280;49820;33.966;73.390;2022-12-18T04:05:54;78971.72;;;9.49;39.09
63665;BME280;49820;33.966;73.390;2022-12-18T04:08:24;78984.09;;;9.67;39.79
63665;BME280;49820;33.966;73.390;2022-12-18T04:11:02;79003.31;;;9.73;38.62
63665;BME280;49820;33.966;73.390;2022-12-18T04:13:35;79004.03;;;9.72;39.47
63665;BME280;49820;33.966;73.390;2022-12-18T04:16:10;79005.81;;;9.83;38.79
63665;BME280;49820;33.966;73.390;2022-12-18T04:18:42;79009.09;;;9.88;38.93
63665;BME280;49820;33.966;73.390;2022-12-18T04:21:13;78991.81;;;9.83;38.50
63665;BME280;49820;33.966;73.390;2022-12-18T04:23:42;78996.31;;;9.92;38.15
63665;BME280;49820;33.966;73.390;2022-12-18T04:26:12;78990.88;;;9.99;39.32
63665;BME280;49820;33.966;73.390;2022-12-18T04:29:01;79008.16;;;10.39;38.23
63665;BME280;49820;33.966;73.390;2022-12-18T04:31:30;78995.59;;;10.33;38.15
63665;BME280;49820;33.966;73.390;2022-12-18T04:33:59;79004.16;;;10.40;38.37
63665;BME280;49820;33.966;73.390;2022-12-18T04:36:28;79029.94;;;10.53;38.29
63665;BME280;49820;33.966;73.390;2022-12-18T04:38:57;79029.22;;;10.55;38.03
63665;BME280;49820;33.966;73.390;2022-12-18T04:41:27;79029.47;;;10.78;38.68
63665;BME280;49820;33.966;73.390;2022-12-18T04:43:57;79015.72;;;10.63;38.07
63665;BME280;49820;33.966;73.390;2022-12-18T04:46:26;79016.19;;;10.74;38.85
63665;BME280;49820;33.966;73.390;2022-12-18T04:48:55;79023.97;;;10.86;37.73
63665;BME280;49820;33.966;73.390;2022-12-18T04:51:24;79030.97;;;11.01;39.15
63665;BME280;49820;33.966;73.390;2022-12-18T04:53:53;79018.03;;;11.12;38.50
63665;BME280;49820;33.966;73.390;2022-12-18T04:56:22;79011.78;;;11.24;37.82
63665;BME280;49820;33.966;73.390;2022-12-18T04:58:51;79009.75;;;11.55;35.87
63665;BME280;49820;33.966;73.390;2022-12-18T05:01:20;79023.28;;;12.07;35.36
63665;BME280;49820;33.966;73.390;2022-12-18T05:03:51;79038.09;;;12.31;36.26
63665;BME280;49820;33.966;73.390;2022-12-18T05:06:20;79030.53;;;12.39;35.71
63665;BME280;49820;33.966;73.390;2022-12-18T05:08:49;79028.91;;;12.50;35.29
63665;BME280;49820;33.966;73.390;2022-12-18T05:11:18;79026.25;;;12.75;34.21
63665;BME280;49820;33.966;73.390;2022-12-18T05:13:46;79020.56;;;13.12;34.00
63665;BME280;49820;33.966;73.390;2022-12-18T05:16:15;79010.41;;;13.17;33.17
63665;BME280;49820;33.966;73.390;2022-12-18T05:18:44;79029.59;;;13.50;32.55
63665;BME280;49820;33.966;73.390;2022-12-18T05:21:13;79003.41;;;13.51;33.31
63665;BME280;49820;33.966;73.390;2022-12-18T05:23:42;79017.47;;;13.74;32.25
63665;BME280;49820;33.966;73.390;2022-12-18T05:26:17;79038.78;;;14.46;31.94
63665;BME280;49820;33.966;73.390;2022-12-18T05:28:46;79013.94;;;14.46;31.11
63665;BME280;49820;33.966;73.390;2022-12-18T05:31:15;79017.03;;;14.75;31.38
63665;BME280;49820;33.966;73.390;2022-12-18T05:33:44;79011.53;;;14.79;32.16
63665;BME280;49820;33.966;73.390;2022-12-18T05:36:13;79020.03;;;15.07;29.00
63665;BME280;49820;33.966;73.390;2022-12-18T05:38:42;79031.72;;;14.99;32.17
63665;BME280;49820;33.966;73.390;2022-12-18T05:41:11;79024.22;;;15.02;32.23
63665;BME280;49820;33.966;73.390;2022-12-18T05:43:40;79013.88;;;14.69;31.33
63665;BME280;49820;33.966;73.390;2022-12-18T05:46:14;79019.13;;;14.73;32.20
63665;BME280;49820;33.966;73.390;2022-12-18T05:48:44;79033.31;;;14.50;31.03
63665;BME280;49820;33.966;73.390;2022-12-18T05:51:15;79015.56;;;14.37;31.10
63665;BME280;49820;33.966;73.390;2022-12-18T05:53:45;79020.84;;;14.18;31.70
63665;BME280;49820;33.966;73.390;2022-12-18T05:56:20;79017.22;;;14.05;32.94
63665;BME280;49820;33.966;73.390;2022-12-18T05:58:53;79017.00;;;13.90;31.86
63665;BME280;49820;33.966;73.390;2022-12-18T06:01:41;79027.03;;;13.92;31.51
63665;BME280;49820;33.966;73.390;2022-12-18T06:04:12;78983.81;;;13.54;33.96
63665;BME280;49820;33.966;73.390;2022-12-18T06:06:41;78993.09;;;13.36;34.18
63665;BME280;49820;33.966;73.390;2022-12-18T06:09:11;78990.44;;;13.34;32.71
63665;BME280;49820;33.966;73.390;2022-12-18T06:11:40;79000.94;;;13.43;34.64
63665;BME280;49820;33.966;73.390;2022-12-18T06:14:09;79019.25;;;13.82;35.79
63665;BME280;49820;33.966;73.390;2022-12-18T06:16:38;79009.84;;;13.83;33.30
63665;BME280;49820;33.966;73.390;2022-12-18T06:19:07;79007.56;;;13.91;33.32
63665;BME280;49820;33.966;73.390;2022-12-18T06:21:36;79008.63;;;14.00;34.40
63665;BME280;49820;33.966;73.390;2022-12-18T06:24:05;78987.56;;;14.09;34.54
63665;BME280;49820;33.966;73.390;2022-12-18T06:26:37;78986.59;;;14.39;29.42
63665;BME280;49820;33.966;73.390;2022-12-18T06:29:07;78987.63;;;15.30;31.66
63665;BME280;49820;33.966;73.390;2022-12-18T06:31:36;78975.13;;;16.14;29.44
63665;BME280;49820;33.966;73.390;2022-12-18T06:34:06;78994.88;;;16.96;29.15
63665;BME280;49820;33.966;73.390;2022-12-18T06:36:35;78988.66;;;17.33;26.79
63665;BME280;49820;33.966;73.390;2022-12-18T06:39:05;78984.44;;;17.69;26.25
63665;BME280;49820;33.966;73.390;2022-12-18T06:41:34;78989.31;;;18.13;25.51
63665;BME280;49820;33.966;73.390;2022-12-18T06:44:04;78976.75;;;18.51;24.92
63665;BME280;49820;33.966;73.390;2022-12-18T06:46:34;78971.50;;;18.33;24.77
63665;BME280;49820;33.966;73.390;2022-12-18T06:49:03;78981.16;;;19.18;25.08
63665;BME280;49820;33.966;73.390;2022-12-18T06:51:32;78951.81;;;19.92;23.76
63665;BME280;49820;33.966;73.390;2022-12-18T06:54:01;78962.06;;;19.76;23.58
63665;BME280;49820;33.966;73.390;2022-12-18T06:56:31;78935.16;;;19.30;24.73
63665;BME280;49820;33.966;73.390;2022-12-18T06:59:00;78954.88;;;20.11;23.62
63665;BME280;49820;33.966;73.390;2022-12-18T07:01:29;78952.88;;;19.42;23.42
63665;BME280;49820;33.966;73.390;2022-12-18T07:03:58;78944.25;;;20.60;23.73
63665;BME280;49820;33.966;73.390;2022-12-18T07:06:27;78944.78;;;20.49;23.97
63665;BME280;49820;33.966;73.390;2022-12-18T07:08:56;78942.94;;;21.09;24.30
63665;BME280;49820;33.966;73.390;2022-12-18T07:11:26;78943.81;;;20.42;23.31
63665;BME280;49820;33.966;73.390;2022-12-18T07:13:54;78936.00;;;20.74;25.72
63665;BME280;49820;33.966;73.390;2022-12-18T07:16:24;78933.41;;;21.23;24.16
63665;BME280;49820;33.966;73.390;2022-12-18T07:18:54;78941.00;;;20.82;22.90
63665;BME280;49820;33.966;73.390;2022-12-18T07:21:24;78949.38;;;20.66;23.56
63665;BME280;49820;33.966;73.390;2022-12-18T07:23:53;78940.28;;;20.18;23.53
63665;BME280;49820;33.966;73.390;2022-12-18T07:26:23;78935.09;;;21.41;24.81
63665;BME280;49820;33.966;73.390;2022-12-18T07:28:55;78938.81;;;20.98;22.85
63665;BME280;49820;33.966;73.390;2022-12-18T07:31:26;78933.06;;;21.65;22.61
63665;BME280;49820;33.966;73.390;2022-12-18T07:33:55;78919.22;;;21.82;22.35
63665;BME280;49820;33.966;73.390;2022-12-18T07:36:24;78917.75;;;20.73;22.79
63665;BME280;49820;33.966;73.390;2022-12-18T07:38:53;78916.47;;;20.06;24.05
63665;BME280;49820;33.966;73.390;2022-12-18T07:41:22;78915.69;;;20.61;23.76
63665;BME280;49820;33.966;73.390;2022-12-18T07:43:51;78913.47;;;20.25;23.56
63665;BME280;49820;33.966;73.390;2022-12-18T07:46:21;78918.41;;;21.24;22.71
63665;BME280;49820;33.966;73.390;2022-12-18T07:48:50;78916.59;;;21.44;22.44
63665;BME280;49820;33.966;73.390;2022-12-18T07:51:19;78886.44;;;20.10;23.14
63665;BME280;49820;33.966;73.390;2022-12-18T07:53:48;78903.94;;;20.77;22.72
63665;BME280;49820;33.966;73.390;2022-12-18T07:56:20;78910.47;;;20.94;22.99
63665;BME280;49820;33.966;73.390;2022-12-18T07:58:56;78904.13;;;19.69;24.21
63665;BME280;49820;33.966;73.390;2022-12-18T08:01:26;78909.72;;;21.57;25.00
63665;BME280;49820;33.966;73.390;2022-12-18T08:03:57;78888.13;;;21.79;22.67
63665;BME280;49820;33.966;73.390;2022-12-18T08:06:26;78888.97;;;21.88;22.36
63665;BME280;49820;33.966;73.390;2022-12-18T08:08:56;78890.75;;;21.68;23.53
63665;BME280;49820;33.966;73.390;2022-12-18T08:11:26;78892.78;;;20.83;22.89
63665;BME280;49820;33.966;73.390;2022-12-18T08:13:56;78884.19;;;20.91;22.98
63665;BME280;49820;33.966;73.390;2022-12-18T08:16:26;78895.06;;;21.52;23.02
63665;BME280;49820;33.966;73.390;2022-12-18T08:18:55;78895.88;;;21.25;22.71
63665;BME280;49820;33.966;73.390;2022-12-18T08:21:27;78891.41;;;21.32;23.07
63665;BME280;49820;33.966;73.390;2022-12-18T08:23:58;78884.44;;;20.49;23.99
63665;BME280;49820;33.966;73.390;2022-12-18T08:26:29;78883.31;;;19.78;25.51
63665;BME280;49820;33.966;73.390;2022-12-18T08:29:00;78877.13;;;20.45;24.25
63665;BME280;49820;33.966;73.390;2022-12-18T08:31:30;78886.59;;;20.46;23.97
63665;BME280;49820;33.966;73.390;2022-12-18T08:34:00;78892.31;;;19.75;24.88
63665;BME280;49820;33.966;73.390;2022-12-18T08:36:28;78886.72;;;19.92;25.92
63665;BME280;49820;33.966;73.390;2022-12-18T08:38:57;78867.31;;;20.00;26.21
63665;BME280;49820;33.966;73.390;2022-12-18T08:41:26;78866.28;;;20.71;24.40
63665;BME280;49820;33.966;73.390;2022-12-18T08:43:56;78875.16;;;20.31;25.01
63665;BME280;49820;33.966;73.390;2022-12-18T08:46:44;78888.47;;;19.97;26.15
63665;BME280;49820;33.966;73.390;2022-12-18T08:49:12;78871.34;;;20.01;25.85
63665;BME280;49820;33.966;73.390;2022-12-18T08:51:42;78867.78;;;19.64;26.00
63665;BME280;49820;33.966;73.390;2022-12-18T08:54:12;78882.44;;;19.42;26.66
63665;BME280;49820;33.966;73.390;2022-12-18T08:56:42;78859.66;;;19.10;26.38
63665;BME280;49820;33.966;73.390;2022-12-18T08:59:11;78856.56;;;19.18;26.13
63665;BME280;49820;33.966;73.390;2022-12-18T09:01:47;78860.41;;;19.35;26.48
63665;BME280;49820;33.966;73.390;2022-12-18T09:04:17;78864.91;;;18.72;26.83
63665;BME280;49820;33.966;73.390;2022-12-18T09:06:46;78861.72;;;18.67;27.05
63665;BME280;49820;33.966;73.390;2022-12-18T09:09:15;78866.50;;;18.37;27.48
63665;BME280;49820;33.966;73.390;2022-12-18T09:11:44;78873.91;;;18.95;26.88
63665;BME280;49820;33.966;73.390;2022-12-18T09:14:13;78858.38;;;18.66;27.06
63665;BME280;49820;33.966;73.390;2022-12-18T09:16:43;78856.28;;;18.82;27.14
63665;BME280;49820;33.966;73.390;2022-12-18T09:19:12;78861.66;;;18.25;28.31
63665;BME280;49820;33.966;73.390;2022-12-18T09:21:41;78855.75;;;18.50;27.25
63665;BME280;49820;33.966;73.390;2022-12-18T09:24:15;78864.91;;;18.72;28.37
63665;BME280;49820;33.966;73.390;2022-12-18T09:26:53;78862.13;;;18.29;26.88
63665;BME280;49820;33.966;73.390;2022-12-18T09:29:24;78837.41;;;18.38;27.19
63665;BME280;49820;33.966;73.390;2022-12-18T09:31:53;78840.19;;;18.50;26.90
63665;BME280;49820;33.966;73.390;2022-12-18T09:34:24;78847.22;;;17.86;26.55
63665;BME280;49820;33.966;73.390;2022-12-18T09:36:54;78846.75;;;17.82;27.06
63665;BME280;49820;33.966;73.390;2022-12-18T09:39:23;78853.41;;;17.53;28.07
63665;BME280;49820;33.966;73.390;2022-12-18T09:41:56;78832.41;;;17.39;28.13
63665;BME280;49820;33.966;73.390;2022-12-18T09:44:29;78846.38;;;17.90;27.70
63665;BME280;49820;33.966;73.390;2022-12-18T09:47:30;78846.31;;;17.61;28.49
63665;BME280;49820;33.966;73.390;2022-12-18T09:50:07;78837.25;;;17.37;29.03
63665;BME280;49820;33.966;73.390;2022-12-18T09:52:49;78826.13;;;17.13;29.71
63665;BME280;49820;33.966;73.390;2022-12-18T09:55:30;78831.25;;;17.20;28.92
63665;BME280;49820;33.966;73.390;2022-12-18T10:00:46;78833.88;;;17.68;27.50
63665;BME280;49820;33.966;73.390;2022-12-18T10:03:15;78833.81;;;17.38;27.48
63665;BME280;49820;33.966;73.390;2022-12-18T10:11:45;78818.03;;;17.13;26.88
63665;BME280;49820;33.966;73.390;2022-12-18T10:20:02;78839.78;;;17.41;27.44
63665;BME280;49820;33.966;73.390;2022-12-18T10:23:04;78836.75;;;17.17;27.43
63665;BME280;49820;33.966;73.390;2022-12-18T10:28:13;78833.81;;;16.59;28.24
63665;BME280;49820;33.966;73.390;2022-12-18T10:30:43;78830.63;;;16.54;27.97
63665;BME280;49820;33.966;73.390;2022-12-18T10:33:27;78828.38;;;16.44;28.33
63665;BME280;49820;33.966;73.390;2022-12-18T10:35:57;78819.97;;;16.35;29.12
63665;BME280;49820;33.966;73.390;2022-12-18T10:38:27;78826.91;;;15.97;29.48
63665;BME280;49820;33.966;73.390;2022-12-18T10:43:39;78819.03;;;15.74;30.02
63665;BME280;49820;33.966;73.390;2022-12-18T10:54:20;78813.78;;;14.03;32.88
63665;BME280;49820;33.966;73.390;2022-12-18T10:56:50;78818.13;;;13.32;34.66
63665;BME280;49820;33.966;73.390;2022-12-18T10:59:19;78802.38;;;12.53;36.10
63665;BME280;49820;33.966;73.390;2022-12-18T11:01:55;78819.91;;;12.26;36.58
63665;BME280;49820;33.966;73.390;2022-12-18T11:04:32;78812.41;;;11.82;37.90
63665;BME280;49820;33.966;73.390;2022-12-18T11:07:08;78815.31;;;11.47;38.86
63665;BME280;49820;33.966;73.390;2022-12-18T11:09:40;78796.25;;;11.08;39.17
63665;BME280;49820;33.966;73.390;2022-12-18T11:12:16;78815.97;;;10.94;39.61
63665;BME280;49820;33.966;73.390;2022-12-18T11:14:54;78800.50;;;10.41;41.23
63665;BME280;49820;33.966;73.390;2022-12-18T11:17:31;78811.97;;;10.36;41.76
63665;BME280;49820;33.966;73.390;2022-12-18T11:20:06;78801.44;;;9.97;41.04
63665;BME280;49820;33.966;73.390;2022-12-18T11:23:03;78791.38;;;9.66;42.23
63665;BME280;49820;33.966;73.390;2022-12-18T11:25:33;78803.00;;;9.52;42.66
63665;BME280;49820;33.966;73.390;2022-12-18T11:28:27;78803.81;;;9.45;43.29
63665;BME280;49820;33.966;73.390;2022-12-18T11:31:23;78805.59;;;9.22;42.98
63665;BME280;49820;33.966;73.390;2022-12-18T11:34:28;78796.78;;;8.92;43.61
63665;BME280;49820;33.966;73.390;2022-12-18T11:37:00;78782.75;;;8.59;43.84
63665;BME280;49820;33.966;73.390;2022-12-18T11:39:46;78797.94;;;8.66;44.37
63665;BME280;49820;33.966;73.390;2022-12-18T11:42:27;78800.72;;;8.58;44.09
63665;BME280;49820;33.966;73.390;2022-12-18T11:50:55;78806.56;;;8.26;45.11
63665;BME280;49820;33.966;73.390;2022-12-18T11:53:29;78793.56;;;8.05;45.25
63665;BME280;49820;33.966;73.390;2022-12-18T11:56:22;78810.28;;;7.98;46.01
63665;BME280;49820;33.966;73.390;2022-12-18T12:01:37;78814.06;;;7.66;46.47
63665;BME280;49820;33.966;73.390;2022-12-18T12:08:23;78809.50;;;7.60;46.48
63665;BME280;49820;33.966;73.390;2022-12-18T12:11:38;78802.44;;;7.41;46.62
63665;BME280;49820;33.966;73.390;2022-12-18T12:14:21;78809.06;;;7.44;46.13
63665;BME280;49820;33.966;73.390;2022-12-18T12:20:16;78770.53;;;6.92;46.15
63665;BME280;49820;33.966;73.390;2022-12-18T12:31:39;78807.47;;;7.12;45.69
63665;BME280;49820;33.966;73.390;2022-12-18T12:37:19;78787.31;;;6.76;46.32
63665;BME280;49820;33.966;73.390;2022-12-18T12:39:53;78792.19;;;6.53;47.05
63665;BME280;49820;33.966;73.390;2022-12-18T12:42:42;78798.97;;;6.40;47.29
63665;BME280;49820;33.966;73.390;2022-12-18T12:45:53;78797.25;;;6.14;47.67
63665;BME280;49820;33.966;73.390;2022-12-18T12:50:52;78794.31;;;5.63;47.60
63665;BME280;49820;33.966;73.390;2022-12-18T12:53:29;78803.09;;;5.41;48.59
63665;BME280;49820;33.966;73.390;2022-12-18T12:55:59;78792.00;;;5.12;48.75
63665;BME280;49820;33.966;73.390;2022-12-18T13:02:18;78814.53;;;5.13;49.69
63665;BME280;49820;33.966;73.390;2022-12-18T13:07:41;78813.84;;;5.15;50.15
63665;BME280;49820;33.966;73.390;2022-12-18T13:15:43;78813.19;;;5.12;51.03
63665;BME280;49820;33.966;73.390;2022-12-18T13:18:20;78814.56;;;5.07;51.22
63665;BME280;49820;33.966;73.390;2022-12-18T13:21:12;78812.66;;;4.89;52.15
63665;BME280;49820;33.966;73.390;2022-12-18T13:23:48;78807.47;;;4.73;52.77
63665;BME280;49820;33.966;73.390;2022-12-18T13:28:57;78814.13;;;4.56;54.81
63665;BME280;49820;33.966;73.390;2022-12-18T13:34:29;78820.88;;;4.25;55.69
63665;BME280;49820;33.966;73.390;2022-12-18T13:46:48;78811.69;;;3.97;59.37
63665;BME280;49820;33.966;73.390;2022-12-18T13:49:23;78819.59;;;4.07;61.03
63665;BME280;49820;33.966;73.390;2022-12-18T13:51:55;78808.41;;;3.97;62.16
63665;BME280;49820;33.966;73.390;2022-12-18T13:56:59;78807.06;;;3.94;63.76
63665;BME280;49820;33.966;73.390;2022-12-18T13:59:36;78822.91;;;4.00;64.95
63665;BME280;49820;33.966;73.390;2022-12-18T14:02:13;78790.63;;;3.73;64.79
63665;BME280;49820;33.966;73.390;2022-12-18T14:04:47;78808.44;;;3.76;65.46
63665;BME280;49820;33.966;73.390;2022-12-18T14:07:26;78813.69;;;3.84;65.32
63665;BME280;49820;33.966;73.390;2022-12-18T14:10:12;78829.56;;;3.84;66.14
63665;BME280;49820;33.966;73.390;2022-12-18T14:13:10;78816.38;;;3.72;66.47
63665;BME280;49820;33.966;73.390;2022-12-18T14:15:43;78826.91;;;3.76;66.87
63665;BME280;49820;33.966;73.390;2022-12-18T14:20:59;78823.63;;;3.62;67.61
63665;BME280;49820;33.966;73.390;2022-12-18T14:23:38;78824.97;;;3.61;67.53
63665;BME280;49820;33.966;73.390;2022-12-18T14:26:27;78834.22;;;3.56;67.48
63665;BME280;49820;33.966;73.390;2022-12-18T14:28:59;78821.00;;;3.52;66.47
63665;BME280;49820;33.966;73.390;2022-12-18T14:31:33;78821.00;;;3.43;65.93
63665;BME280;49820;33.966;73.390;2022-12-18T14:34:01;78793.94;;;3.11;65.57
63665;BME280;49820;33.966;73.390;2022-12-18T14:36:31;78818.38;;;3.29;63.83
63665;BME280;49820;33.966;73.390;2022-12-18T14:38:59;78805.81;;;3.10;62.15
63665;BME280;49820;33.966;73.390;2022-12-18T14:41:28;78830.25;;;3.28;60.83
63665;BME280;49820;33.966;73.390;2022-12-18T14:44:05;78831.59;;;3.23;59.36
63665;BME280;49820;33.966;73.390;2022-12-18T14:46:37;78837.53;;;3.24;58.99
63665;BME280;49820;33.966;73.390;2022-12-18T14:52:06;78832.22;;;3.20;59.33
63665;BME280;49820;33.966;73.390;2022-12-18T14:54:46;78798.56;;;2.96;60.48
63665;BME280;49820;33.966;73.390;2022-12-18T14:57:25;78842.78;;;3.26;60.58
63665;BME280;49820;33.966;73.390;2022-12-18T15:00:07;78840.81;;;3.28;59.62
63665;BME280;49820;33.966;73.390;2022-12-18T15:02:41;78837.50;;;3.22;59.15
63665;BME280;49820;33.966;73.390;2022-12-18T15:05:18;78822.97;;;3.08;57.20
63665;BME280;49820;33.966;73.390;2022-12-18T15:07:51;78838.81;;;3.11;55.37
63665;BME280;49820;33.966;73.390;2022-12-18T15:10:23;78834.19;;;2.99;54.16
63665;BME280;49820;33.966;73.390;2022-12-18T15:20:45;78861.91;;;3.10;56.46
63665;BME280;49820;33.966;73.390;2022-12-18T15:23:26;78854.66;;;3.04;56.86
63665;BME280;49820;33.966;73.390;2022-12-18T15:26:05;78830.88;;;2.78;58.36
63665;BME280;49820;33.966;73.390;2022-12-18T15:28:52;78857.28;;;3.08;58.87
63665;BME280;49820;33.966;73.390;2022-12-18T15:31:34;78850.03;;;2.91;57.89
63665;BME280;49820;33.966;73.390;2022-12-18T15:34:18;78836.78;;;2.73;60.23
63665;BME280;49820;33.966;73.390;2022-12-18T15:36:50;78869.81;;;2.96;63.74
63665;BME280;49820;33.966;73.390;2022-12-18T15:39:19;78856.63;;;3.06;65.45
63665;BME280;49820;33.966;73.390;2022-12-18T15:41:49;78817.66;;;2.72;66.20
63665;BME280;49820;33.966;73.390;2022-12-18T15:44:37;78857.94;;;2.99;67.25